createdAt,value
2023-01-11T00:00:08.879Z,94677.22
2023-01-11T00:02:09.915Z,94675.53
2023-01-11T00:04:08.144Z,94669.16
2023-01-11T00:06:08.159Z,94671.84
2023-01-11T00:08:06.877Z,94677.97
2023-01-11T00:10:05.691Z,94665.91
2023-01-11T00:12:04.212Z,94669.34
2023-01-11T00:14:04.020Z,94673.69
2023-01-11T00:16:07.120Z,94670.38
2023-01-11T00:18:05.513Z,94674.06
2023-01-11T00:20:05.817Z,94674.88
2023-01-11T00:22:04.997Z,94678.56
2023-01-11T00:24:03.366Z,94681.22
2023-01-11T00:26:03.964Z,94677.47
2023-01-11T00:28:02.220Z,94686.06
2023-01-11T00:30:01.803Z,94691.25
2023-01-11T00:32:00.006Z,94693.06
2023-01-11T00:33:59.038Z,94694.00
2023-01-11T00:35:57.322Z,94690.59
2023-01-11T00:37:55.575Z,94689.91
2023-01-11T00:39:53.811Z,94684.91
2023-01-11T00:42:09.923Z,94691.19
2023-01-11T00:44:28.840Z,94694.75
2023-01-11T00:46:45.696Z,94696.47
2023-01-11T00:48:44.116Z,94698.94
2023-01-11T00:50:42.721Z,94690.41
2023-01-11T00:52:41.021Z,94690.41
2023-01-11T00:54:40.566Z,94697.44
2023-01-11T00:56:39.089Z,94694.09
2023-01-11T00:58:37.295Z,94701.13
2023-01-11T01:00:35.811Z,94698.63
2023-01-11T01:02:35.702Z,94700.53
2023-01-11T01:04:34.107Z,94702.28
2023-01-11T01:06:32.766Z,94701.13
2023-01-11T01:08:31.144Z,94693.44
2023-01-11T01:10:29.540Z,94685.78
2023-01-11T01:12:45.203Z,94690.78
2023-01-11T01:14:45.587Z,94701.88
2023-01-11T01:16:46.443Z,94699.28
2023-01-11T01:18:47.843Z,94696.78
2023-01-11T01:20:46.207Z,94700.31
2023-01-11T01:22:44.371Z,94702.22
2023-01-11T01:24:42.655Z,94712.66
2023-01-11T01:26:40.865Z,94714.13
2023-01-11T01:28:39.126Z,94716.81
2023-01-11T01:30:37.306Z,94710.00
2023-01-11T01:32:35.880Z,94717.91
2023-01-11T01:34:37.646Z,94711.97
2023-01-11T01:36:35.824Z,94714.81
2023-01-11T01:38:34.231Z,94714.00
2023-01-11T01:40:32.366Z,94721.50
2023-01-11T01:42:30.665Z,94720.72
2023-01-11T01:45:01.475Z,94721.59
2023-01-11T01:46:59.841Z,94717.47
2023-01-11T01:49:01.736Z,94719.41
2023-01-11T01:51:01.611Z,94722.06
2023-01-11T01:53:03.544Z,94724.81
2023-01-11T01:55:07.528Z,94723.31
2023-01-11T01:57:11.983Z,94730.09
2023-01-11T01:59:14.092Z,94730.94
2023-01-11T02:01:32.444Z,94721.31
2023-01-11T02:03:30.880Z,94732.31
2023-01-11T02:05:29.595Z,94720.94
2023-01-11T02:07:33.292Z,94729.34
2023-01-11T02:09:37.767Z,94727.44
2023-01-11T02:11:43.322Z,94729.00
2023-01-11T02:13:46.181Z,94734.94
2023-01-11T02:15:44.764Z,94734.94
2023-01-11T02:17:43.162Z,94736.53
2023-01-11T02:19:55.266Z,94746.47
2023-01-11T02:22:14.404Z,94751.28
2023-01-11T02:24:36.441Z,94758.06
2023-01-11T02:27:13.851Z,94766.59
2023-01-11T02:29:17.828Z,94766.50
2023-01-11T02:31:27.268Z,94773.41
2023-01-11T02:33:37.504Z,94776.06
2023-01-11T02:35:46.516Z,94782.94
2023-01-11T02:37:55.335Z,94785.09
2023-01-11T02:40:04.367Z,94783.69
2023-01-11T02:42:26.918Z,94787.94
2023-01-11T02:44:51.210Z,94792.31
2023-01-11T02:46:54.722Z,94793.13
2023-01-11T02:49:00.931Z,94782.78
2023-01-11T02:51:06.075Z,94787.13
2023-01-11T02:53:10.896Z,94796.81
2023-01-11T02:55:13.737Z,94800.13
2023-01-11T02:57:13.130Z,94797.38
2023-01-11T02:59:15.406Z,94799.97
2023-01-11T03:01:15.703Z,94800.06
2023-01-11T03:03:18.302Z,94800.75
2023-01-11T03:05:16.699Z,94805.59
2023-01-11T03:07:40.675Z,94811.81
2023-01-11T03:09:52.847Z,94805.59
2023-01-11T03:12:27.591Z,94803.81
2023-01-11T03:14:30.316Z,94800.47
2023-01-11T03:16:37.570Z,94808.19
2023-01-11T03:18:46.206Z,94803.06
2023-01-11T03:20:51.175Z,94805.75
2023-01-11T03:23:01.121Z,94809.91
2023-01-11T03:25:10.587Z,94803.66
2023-01-11T03:27:20.405Z,94801.31
2023-01-11T03:29:29.777Z,94807.16
2023-01-11T03:31:35.551Z,94798.47
2023-01-11T03:33:39.540Z,94799.31
2023-01-11T03:35:43.876Z,94799.06
2023-01-11T03:37:45.458Z,94794.69
2023-01-11T03:39:47.645Z,94798.13
2023-01-11T03:41:47.260Z,94797.97
2023-01-11T03:43:47.834Z,94796.28
2023-01-11T03:45:51.049Z,94800.81
2023-01-11T03:47:53.901Z,94805.00
2023-01-11T03:49:55.864Z,94809.31
2023-01-11T03:51:57.708Z,94808.47
2023-01-11T03:53:59.963Z,94810.19
2023-01-11T03:56:00.305Z,94802.97
2023-01-11T03:57:59.482Z,94812.34
2023-01-11T03:59:58.289Z,94808.06
2023-01-11T04:01:57.606Z,94808.06
2023-01-11T04:03:57.185Z,94820.00
2023-01-11T04:05:59.906Z,94822.69
2023-01-11T04:07:58.203Z,94820.00
2023-01-11T04:09:57.125Z,94815.75
2023-01-11T04:11:55.423Z,94820.00
2023-01-11T04:13:53.741Z,94821.66
2023-01-11T04:15:54.037Z,94817.16
2023-01-11T04:17:52.331Z,94824.75
2023-01-11T04:19:52.206Z,94828.19
2023-01-11T04:21:50.612Z,94830.03
2023-01-11T04:23:49.884Z,94827.28
2023-01-11T04:25:48.505Z,94831.69
2023-01-11T04:27:46.811Z,94828.19
2023-01-11T04:29:45.148Z,94835.97
2023-01-11T04:31:43.527Z,94837.88
2023-01-11T04:33:41.705Z,94842.06
2023-01-11T04:35:42.031Z,94852.94
2023-01-11T04:37:40.450Z,94846.91
2023-01-11T04:39:38.843Z,94842.56
2023-01-11T04:41:54.585Z,94852.94
2023-01-11T04:43:56.400Z,94855.44
2023-01-11T04:45:59.780Z,94850.41
2023-01-11T04:47:58.946Z,94856.53
2023-01-11T04:49:57.158Z,94855.44
2023-01-11T04:51:56.670Z,94856.47
2023-01-11T04:53:54.968Z,94859.78
2023-01-11T04:55:53.680Z,94861.38
2023-01-11T04:57:52.152Z,94866.28
2023-01-11T04:59:50.608Z,94866.88
2023-01-11T05:01:48.813Z,94867.56
2023-01-11T05:03:47.650Z,94869.94
2023-01-11T05:05:45.855Z,94869.28
2023-01-11T05:07:45.566Z,94867.72
2023-01-11T05:09:43.988Z,94877.25
2023-01-11T05:11:42.316Z,94874.00
2023-01-11T05:13:43.684Z,94876.66
2023-01-11T05:15:42.109Z,94878.25
2023-01-11T05:17:40.297Z,94893.63
2023-01-11T05:19:38.777Z,94888.69
2023-01-11T05:21:39.242Z,94887.13
2023-01-11T05:23:39.027Z,94888.94
2023-01-11T05:25:37.201Z,94889.03
2023-01-11T05:27:35.318Z,94888.03
2023-01-11T05:29:33.663Z,94885.38
2023-01-11T05:31:32.860Z,94889.63
2023-01-11T05:33:31.229Z,94888.69
2023-01-11T05:35:29.380Z,94889.34
2023-01-11T05:37:27.405Z,94887.69
2023-01-11T05:39:27.364Z,94884.16
2023-01-11T05:41:27.618Z,94891.72
2023-01-11T05:43:26.584Z,94897.72
2023-01-11T05:45:29.371Z,94902.66
2023-01-11T05:47:27.710Z,94899.31
2023-01-11T05:49:26.335Z,94906.25
2023-01-11T05:51:24.653Z,94907.94
2023-01-11T05:53:24.001Z,94911.41
2023-01-11T05:55:23.726Z,94914.88
2023-01-11T05:57:21.893Z,94914.00
2023-01-11T05:59:20.431Z,94926.25
2023-01-11T06:01:19.818Z,94923.81
2023-01-11T06:03:18.059Z,94917.13
2023-01-11T06:05:16.684Z,94914.81
2023-01-11T06:07:14.959Z,94923.56
2023-01-11T06:09:13.384Z,94926.16
2023-01-11T06:11:13.090Z,94929.25
2023-01-11T06:13:29.520Z,94936.00
2023-01-11T06:15:27.857Z,94934.94
2023-01-11T06:17:26.128Z,94942.53
2023-01-11T06:19:24.561Z,94949.25
2023-01-11T06:21:24.216Z,94953.25
2023-01-11T06:23:23.566Z,94949.88
2023-01-11T06:25:21.839Z,94956.28
2023-01-11T06:27:21.383Z,94960.25
2023-01-11T06:29:19.821Z,94964.53
2023-01-11T06:31:18.758Z,94962.97
2023-01-11T06:33:17.069Z,94976.81
2023-01-11T06:35:15.576Z,94961.13
2023-01-11T06:37:13.777Z,94970.97
2023-01-11T06:39:11.950Z,94980.00
2023-01-11T06:41:10.654Z,94976.03
2023-01-11T06:43:11.144Z,94976.69
2023-01-11T06:45:13.320Z,94970.84
2023-01-11T06:47:11.509Z,94975.03
2023-01-11T06:49:09.891Z,94983.50
2023-01-11T06:51:11.072Z,94979.94
2023-01-11T06:53:09.390Z,94980.59
2023-01-11T06:55:11.587Z,94990.44
2023-01-11T06:57:09.847Z,94993.50
2023-01-11T06:59:09.485Z,94986.53
2023-01-11T07:01:07.999Z,94986.91
2023-01-11T07:03:07.398Z,94995.63
2023-01-11T07:05:06.533Z,95002.13
2023-01-11T07:07:05.050Z,95009.53
2023-01-11T07:09:03.253Z,95008.72
2023-01-11T07:11:01.537Z,95009.19
2023-01-11T07:12:59.843Z,95014.94
2023-01-11T07:14:59.533Z,95018.00
2023-01-11T07:16:57.789Z,95024.66
2023-01-11T07:18:56.085Z,95017.69
2023-01-11T07:20:57.051Z,95024.41
2023-01-11T07:22:59.410Z,95020.59
2023-01-11T07:24:57.772Z,95016.16
2023-01-11T07:26:56.351Z,95029.63
2023-01-11T07:28:54.680Z,95029.81
2023-01-11T07:30:59.516Z,95030.94
2023-01-11T07:32:59.688Z,95031.84
2023-01-11T07:34:57.889Z,95031.13
2023-01-11T07:36:56.056Z,95035.56
2023-01-11T07:38:54.256Z,95038.44
2023-01-11T07:40:52.556Z,95039.09
2023-01-11T07:43:09.102Z,95040.88
2023-01-11T07:45:09.195Z,95037.41
2023-01-11T07:47:09.049Z,95044.81
2023-01-11T07:49:07.260Z,95042.28
2023-01-11T07:51:05.540Z,95039.44
2023-01-11T07:53:03.733Z,95055.19
2023-01-11T07:55:02.862Z,95058.88
2023-01-11T07:57:01.399Z,95061.88
2023-01-11T07:58:59.719Z,95061.34
2023-01-11T08:01:00.693Z,95065.72
2023-01-11T08:03:01.874Z,95069.31
2023-01-11T08:05:02.235Z,95069.00
2023-01-11T08:07:01.567Z,95079.00
2023-01-11T08:09:02.567Z,95081.44
2023-01-11T08:11:20.799Z,95083.09
2023-01-11T08:13:38.488Z,95086.22
2023-01-11T08:15:37.443Z,95084.69
2023-01-11T08:17:35.940Z,95086.31
2023-01-11T08:19:35.567Z,95091.41
2023-01-11T08:21:33.891Z,95097.38
2023-01-11T08:23:32.235Z,95104.03
2023-01-11T08:25:30.369Z,95101.88
2023-01-11T08:27:28.821Z,95107.97
2023-01-11T08:29:27.325Z,95122.78
2023-01-11T08:31:26.412Z,95123.22
2023-01-11T08:33:24.931Z,95123.50
2023-01-11T08:35:25.017Z,95125.28
2023-01-11T08:37:23.343Z,95122.81
2023-01-11T08:39:21.599Z,95124.47
2023-01-11T08:41:19.911Z,95129.28
2023-01-11T08:43:18.171Z,95129.75
2023-01-11T08:45:18.808Z,95136.22
2023-01-11T08:47:18.703Z,95134.22
2023-01-11T08:49:16.976Z,95125.53
2023-01-11T08:51:18.197Z,95124.53
2023-01-11T08:53:16.854Z,95132.47
2023-01-11T08:55:15.496Z,95138.50
2023-01-11T08:57:13.786Z,95139.97
2023-01-11T08:59:12.516Z,95131.41
2023-01-11T09:01:12.158Z,95136.31
2023-01-11T09:03:11.989Z,95146.78
2023-01-11T09:05:10.924Z,95138.25
2023-01-11T09:07:10.725Z,95137.63
2023-01-11T09:09:09.001Z,95129.47
2023-01-11T09:11:27.281Z,95125.75
2023-01-11T09:13:25.784Z,95115.31
2023-01-11T09:15:24.085Z,95119.28
2023-01-11T09:17:22.300Z,95116.31
2023-01-11T09:19:20.696Z,95110.13
2023-01-11T09:21:19.836Z,95109.38
2023-01-11T09:23:19.810Z,95105.50
2023-01-11T09:25:18.472Z,95102.19
2023-01-11T09:27:17.320Z,95113.63
2023-01-11T09:29:15.479Z,95120.94
2023-01-11T09:31:13.859Z,95127.28
2023-01-11T09:33:12.482Z,95130.84
2023-01-11T09:35:11.610Z,95132.69
2023-01-11T09:37:10.074Z,95138.66
2023-01-11T09:39:14.711Z,95144.16
2023-01-11T09:41:32.390Z,95135.44
2023-01-11T09:43:31.724Z,95133.28
2023-01-11T09:45:32.696Z,95136.59
2023-01-11T09:47:39.295Z,95142.75
2023-01-11T09:49:41.941Z,95144.94
2023-01-11T09:51:41.500Z,95144.31
2023-01-11T09:53:42.044Z,95144.47
2023-01-11T09:55:43.970Z,95142.06
2023-01-11T09:57:52.156Z,95154.75
2023-01-11T09:59:57.199Z,95149.22
2023-01-11T10:02:05.409Z,95143.09
2023-01-11T10:04:37.752Z,95144.28
2023-01-11T10:06:46.554Z,95135.50
2023-01-11T10:18:29.797Z,95147.72
2023-01-11T10:18:30.653Z,95153.69
2023-01-11T10:21:33.527Z,95141.94
2023-01-11T10:23:41.871Z,95144.66
2023-01-11T10:25:50.449Z,95149.03
2023-01-11T10:27:56.904Z,95147.34
2023-01-11T10:30:12.912Z,95138.03
2023-01-11T10:32:53.304Z,95146.66
2023-01-11T10:35:17.836Z,95138.66
2023-01-11T10:37:36.305Z,95136.44
2023-01-11T10:39:59.222Z,95140.50
2023-01-11T10:42:07.943Z,95141.63
2023-01-11T10:44:19.103Z,95137.56
2023-01-11T10:46:21.573Z,95140.41
2023-01-11T10:48:26.899Z,95141.50
2023-01-11T10:50:33.453Z,95143.28
2023-01-11T10:52:41.618Z,95136.06
2023-01-11T10:54:46.815Z,95131.47
2023-01-11T10:57:08.157Z,95131.63
2023-01-11T10:59:22.227Z,95142.97
2023-01-11T11:01:33.124Z,95140.47
2023-01-11T11:03:55.917Z,95135.44
2023-01-11T11:06:02.418Z,95131.38
2023-01-11T11:08:10.026Z,95131.53
2023-01-11T11:10:16.053Z,95131.41
2023-01-11T11:12:20.559Z,95125.00
2023-01-11T11:14:30.052Z,95126.66
2023-01-11T11:16:42.493Z,95122.66
2023-01-11T11:18:40.846Z,95124.59
2023-01-11T11:20:39.255Z,95122.78
2023-01-11T11:22:37.488Z,95132.78
2023-01-11T11:24:40.282Z,95122.03
2023-01-11T11:26:41.876Z,95124.19
2023-01-11T11:28:59.924Z,95127.59
2023-01-11T11:31:02.977Z,95121.88
2023-01-11T11:33:03.885Z,95121.59
2023-01-11T11:35:02.162Z,95125.97
2023-01-11T11:37:01.924Z,95130.06
2023-01-11T11:39:10.540Z,95125.47
2023-01-11T11:41:11.475Z,95136.78
2023-01-11T11:43:20.651Z,95141.63
2023-01-11T11:45:19.320Z,95143.44
2023-01-11T11:47:19.091Z,95147.34
2023-01-11T11:49:18.651Z,95149.03
2023-01-11T11:51:23.504Z,95147.28
2023-01-11T11:53:38.638Z,95147.91
2023-01-11T11:55:37.021Z,95149.38
2023-01-11T11:57:41.175Z,95142.06
2023-01-11T11:59:39.581Z,95150.19
2023-01-11T12:01:40.862Z,95151.41
2023-01-11T12:03:44.958Z,95152.25
2023-01-11T12:05:52.448Z,95153.59
2023-01-11T12:07:55.585Z,95151.81
2023-01-11T12:10:00.333Z,95154.53
2023-01-11T12:11:58.849Z,95149.28
2023-01-11T12:14:07.665Z,95156.97
2023-01-11T12:16:08.164Z,95152.00
2023-01-11T12:18:24.908Z,95161.94
2023-01-11T12:20:36.080Z,95159.53
2023-01-11T12:22:34.250Z,95158.81
2023-01-11T12:24:34.044Z,95155.88
2023-01-11T12:26:38.537Z,95151.38
2023-01-11T12:29:04.087Z,95158.56
2023-01-11T12:31:09.816Z,95160.34
2023-01-11T12:33:26.832Z,95155.31
2023-01-11T12:35:35.637Z,95157.47
2023-01-11T12:37:53.312Z,95168.34
2023-01-11T12:39:57.343Z,95163.75
2023-01-11T12:42:15.695Z,95163.56
2023-01-11T12:44:23.457Z,95174.53
2023-01-11T12:46:30.937Z,95170.88
2023-01-11T12:48:42.347Z,95167.09
2023-01-11T12:50:57.179Z,95166.09
2023-01-11T12:53:01.676Z,95174.38
2023-01-11T12:55:20.617Z,95177.38
2023-01-11T12:57:27.315Z,95176.28
2023-01-11T12:59:46.771Z,95177.75
2023-01-11T13:01:56.312Z,95179.72
2023-01-11T13:04:26.868Z,95181.25
2023-01-11T13:06:35.665Z,95184.19
2023-01-11T13:08:49.096Z,95182.91
2023-01-11T13:11:00.492Z,95186.47
2023-01-11T13:13:06.673Z,95194.69
2023-01-11T13:15:21.248Z,95187.50
2023-01-11T13:17:30.055Z,95193.66
2023-01-11T13:19:38.111Z,95199.25
2023-01-11T13:21:44.519Z,95198.94
2023-01-11T13:23:47.291Z,95199.56
2023-01-11T13:25:49.351Z,95202.06
2023-01-11T13:27:49.797Z,95193.78
2023-01-11T13:29:51.157Z,95203.16
2023-01-11T13:31:51.355Z,95198.78
2023-01-11T13:33:55.021Z,95195.81
2023-01-11T13:35:58.919Z,95201.31
2023-01-11T13:38:02.751Z,95200.28
2023-01-11T13:40:10.050Z,95197.31
2023-01-11T13:42:22.858Z,95212.13
2023-01-11T13:44:25.391Z,95193.78
2023-01-11T13:46:43.532Z,95202.72
2023-01-11T13:48:46.599Z,95205.06
2023-01-11T13:50:54.632Z,95200.28
2023-01-11T13:53:07.056Z,95203.78
2023-01-11T13:55:20.844Z,95198.25
2023-01-11T13:57:34.916Z,95199.53
2023-01-11T13:59:37.908Z,95204.09
2023-01-11T14:01:46.662Z,95210.00
2023-01-11T14:03:51.054Z,95212.25
2023-01-11T14:05:52.414Z,95215.22
2023-01-11T14:08:02.599Z,95218.53
2023-01-11T14:10:18.926Z,95216.53
2023-01-11T14:12:27.797Z,95215.66
2023-01-11T14:14:51.891Z,95216.84
2023-01-11T14:17:15.963Z,95215.66
2023-01-11T14:19:21.854Z,95214.38
2023-01-11T14:21:27.466Z,95216.44
2023-01-11T14:23:32.596Z,95217.84
2023-01-11T14:25:45.361Z,95223.63
2023-01-11T14:28:15.446Z,95232.75
2023-01-11T14:30:30.038Z,95234.72
2023-01-11T14:32:51.205Z,95227.16
2023-01-11T14:35:22.273Z,95235.91
2023-01-11T14:37:46.902Z,95235.91
2023-01-11T14:40:04.801Z,95240.19
2023-01-11T14:42:31.183Z,95241.31
2023-01-11T14:44:49.719Z,95244.00
2023-01-11T14:47:02.632Z,95253.84
2023-01-11T14:49:13.547Z,95254.13
2023-01-11T14:51:32.610Z,95253.38
2023-01-11T14:53:38.344Z,95251.88
2023-01-11T14:55:45.066Z,95258.31
2023-01-11T14:58:00.708Z,95257.47
2023-01-11T14:59:59.137Z,95267.88
2023-01-11T15:02:25.761Z,95268.81
2023-01-11T15:04:24.221Z,95263.16
2023-01-11T15:06:22.864Z,95271.53
2023-01-11T15:08:25.645Z,95264.53
2023-01-11T15:10:50.795Z,95275.50
2023-01-11T15:12:50.701Z,95268.75
2023-01-11T15:14:51.211Z,95284.06
2023-01-11T15:17:10.206Z,95279.31
2023-01-11T15:19:13.284Z,95276.16
2023-01-11T15:21:16.658Z,95280.88
2023-01-11T15:23:18.573Z,95289.97
2023-01-11T15:25:23.925Z,95281.50
2023-01-11T15:27:26.973Z,95296.47
2023-01-11T15:29:29.401Z,95292.25
2023-01-11T15:31:34.523Z,95292.53
2023-01-11T15:33:47.196Z,95298.28
2023-01-11T15:36:04.019Z,95298.28
2023-01-11T15:38:08.884Z,95294.84
2023-01-11T15:40:17.915Z,95288.44
2023-01-11T15:43:04.463Z,95284.63
2023-01-11T15:45:28.820Z,95291.25
2023-01-11T15:47:44.987Z,95290.97
2023-01-11T15:50:32.072Z,95297.72
2023-01-11T15:53:07.134Z,95304.03
2023-01-11T15:55:30.214Z,95302.50
2023-01-11T15:58:06.194Z,95304.66
2023-01-11T16:00:21.248Z,95310.03
2023-01-11T16:03:03.969Z,95308.53
2023-01-11T16:05:14.395Z,95318.69
2023-01-11T16:07:26.662Z,95317.00
2023-01-11T16:10:02.498Z,95324.78
2023-01-11T16:12:16.417Z,95320.75
2023-01-11T16:14:42.665Z,95319.75
2023-01-11T16:16:43.828Z,95335.03
2023-01-11T16:18:57.165Z,95327.03
2023-01-11T16:21:03.565Z,95325.69
2023-01-11T16:23:10.350Z,95336.53
2023-01-11T16:25:15.342Z,95345.16
2023-01-11T16:27:22.892Z,95343.09
2023-01-11T16:29:23.842Z,95332.19
2023-01-11T16:31:22.319Z,95339.81
2023-01-11T16:33:26.591Z,95344.09
2023-01-11T16:35:27.101Z,95341.97
2023-01-11T16:37:30.595Z,95348.03
2023-01-11T16:39:33.740Z,95342.34
2023-01-11T16:41:42.435Z,95353.06
2023-01-11T16:43:48.207Z,95352.41
2023-01-11T16:45:48.683Z,95352.00
2023-01-11T16:48:05.997Z,95354.75
2023-01-11T16:50:19.812Z,95356.50
2023-01-11T16:52:51.330Z,95356.59
2023-01-11T16:54:49.716Z,95368.84
2023-01-11T16:56:49.571Z,95361.72
2023-01-11T16:59:06.691Z,95366.91
2023-01-11T17:01:07.181Z,95363.53
2023-01-11T17:03:30.648Z,95362.88
2023-01-11T17:05:29.207Z,95361.88
2023-01-11T17:07:29.992Z,95371.69
2023-01-11T17:09:30.045Z,95372.09
2023-01-11T17:11:33.036Z,95371.59
2023-01-11T17:13:59.347Z,95368.56
2023-01-11T17:16:03.977Z,95374.50
2023-01-11T17:18:04.136Z,95379.97
2023-01-11T17:20:02.666Z,95378.22
2023-01-11T17:22:05.748Z,95379.84
2023-01-11T17:24:06.404Z,95374.13
2023-01-11T17:26:09.010Z,95377.97
2023-01-11T17:28:19.005Z,95386.78
2023-01-11T17:30:19.737Z,95382.00
2023-01-11T17:32:23.781Z,95393.06
2023-01-11T17:34:27.974Z,95394.22
2023-01-11T17:36:26.901Z,95398.06
2023-01-11T17:38:27.323Z,95390.06
2023-01-11T17:40:29.547Z,95400.44
2023-01-11T17:42:46.858Z,95397.19
2023-01-11T17:45:06.541Z,95397.91
2023-01-11T17:47:10.163Z,95399.28
2023-01-11T17:49:22.582Z,95395.25
2023-01-11T17:51:26.574Z,95396.59
2023-01-11T17:53:26.998Z,95394.41
2023-01-11T17:55:26.661Z,95401.09
2023-01-11T17:57:24.956Z,95407.41
2023-01-11T17:59:27.161Z,95403.13
2023-01-11T18:01:26.528Z,95405.91
2023-01-11T18:03:25.187Z,95401.78
2023-01-11T18:05:28.034Z,95406.66
2023-01-11T18:07:26.628Z,95397.84
2023-01-11T18:09:29.091Z,95401.47
2023-01-11T18:11:29.347Z,95404.13
2023-01-11T18:13:34.170Z,95402.16
2023-01-11T18:15:35.810Z,95403.81
2023-01-11T18:17:39.354Z,95399.78
2023-01-11T18:19:41.381Z,95410.09
2023-01-11T18:21:42.325Z,95395.56
2023-01-11T18:23:40.883Z,95394.84
2023-01-11T18:25:40.542Z,95404.63
2023-01-11T18:27:38.998Z,95401.19
2023-01-11T18:29:51.397Z,95406.47
2023-01-11T18:31:51.331Z,95394.59
2023-01-11T18:33:49.700Z,95396.41
2023-01-11T18:35:50.466Z,95399.94
2023-01-11T18:37:49.175Z,95405.13
2023-01-11T18:39:47.517Z,95411.16
2023-01-11T18:42:04.011Z,95406.22
2023-01-11T18:44:02.702Z,95412.41
2023-01-11T18:46:01.213Z,95408.88
2023-01-11T18:48:01.157Z,95418.56
2023-01-11T18:49:59.723Z,95404.31
2023-01-11T18:51:58.432Z,95415.13
2023-01-11T18:53:57.161Z,95418.91
2023-01-11T18:55:55.786Z,95411.19
2023-01-11T18:57:54.576Z,95412.97
2023-01-11T18:59:54.475Z,95415.88
2023-01-11T19:02:01.442Z,95420.47
2023-01-11T19:04:11.774Z,95425.41
2023-01-11T19:06:13.205Z,95422.31
2023-01-11T19:08:11.767Z,95429.09
2023-01-11T19:10:11.818Z,95424.31
2023-01-11T19:12:10.354Z,95435.59
2023-01-11T19:14:10.927Z,95422.59
2023-01-11T19:16:10.008Z,95423.63
2023-01-11T19:18:08.373Z,95417.59
2023-01-11T19:20:14.388Z,95422.59
2023-01-11T19:22:13.957Z,95426.13
2023-01-11T19:24:12.579Z,95435.28
2023-01-11T19:26:10.918Z,95438.47
2023-01-11T19:28:09.342Z,95451.91
2023-01-11T19:30:12.174Z,95455.59
2023-01-11T19:32:11.282Z,95457.03
2023-01-11T19:34:09.548Z,95458.78
2023-01-11T19:36:10.805Z,95458.25
2023-01-11T19:38:08.957Z,95460.19
2023-01-11T19:40:11.280Z,95456.91
2023-01-11T19:42:09.831Z,95460.53
2023-01-11T19:44:08.186Z,95454.66
2023-01-11T19:46:06.722Z,95466.47
2023-01-11T19:48:05.570Z,95470.16
2023-01-11T19:50:04.388Z,95468.56
2023-01-11T19:52:04.344Z,95468.56
2023-01-11T19:54:02.694Z,95471.25
2023-01-11T19:56:02.277Z,95465.75
2023-01-11T19:58:02.682Z,95472.59
2023-01-11T20:00:01.073Z,95466.63
2023-01-11T20:01:59.944Z,95466.88
2023-01-11T20:03:59.538Z,95464.53
2023-01-11T20:06:07.794Z,95472.38
2023-01-11T20:08:07.628Z,95464.44
2023-01-11T20:10:12.191Z,95465.44
2023-01-11T20:12:12.643Z,95469.78
2023-01-11T20:14:11.091Z,95470.09
2023-01-11T20:16:12.384Z,95471.19
2023-01-11T20:18:11.142Z,95474.28
2023-01-11T20:20:12.140Z,95470.47
2023-01-11T20:22:11.616Z,95473.69
2023-01-11T20:24:14.037Z,95471.09
2023-01-11T20:26:15.267Z,95469.88
2023-01-11T20:28:13.819Z,95477.06
2023-01-11T20:30:13.248Z,95479.66
2023-01-11T20:32:31.505Z,95476.88
2023-01-11T20:34:30.566Z,95481.31
2023-01-11T20:36:29.255Z,95480.50
2023-01-11T20:38:27.448Z,95474.66
2023-01-11T20:40:27.010Z,95478.78
2023-01-11T20:42:25.304Z,95471.88
2023-01-11T20:44:25.653Z,95474.47
2023-01-11T20:46:24.036Z,95475.34
2023-01-11T20:48:23.228Z,95475.50
2023-01-11T20:50:21.482Z,95465.50
2023-01-11T20:52:20.050Z,95467.41
2023-01-11T20:54:19.544Z,95465.50
2023-01-11T20:56:19.849Z,95464.53
2023-01-11T20:58:18.136Z,95470.78
2023-01-11T21:00:17.358Z,95467.28
2023-01-11T21:02:15.828Z,95458.88
2023-01-11T21:04:14.724Z,95458.94
2023-01-11T21:06:15.483Z,95462.47
2023-01-11T21:08:13.860Z,95463.16
2023-01-11T21:10:12.906Z,95460.56
2023-01-11T21:12:12.613Z,95453.69
2023-01-11T21:14:12.224Z,95458.88
2023-01-11T21:16:12.858Z,95462.22
2023-01-11T21:18:11.017Z,95470.78
2023-01-11T21:20:12.674Z,95457.72
2023-01-11T21:22:10.791Z,95462.84
2023-01-11T21:24:10.237Z,95450.03
2023-01-11T21:26:13.049Z,95461.47
2023-01-11T21:28:12.753Z,95454.53
2023-01-11T21:30:12.307Z,95450.47
2023-01-11T21:32:10.393Z,95454.81
2023-01-11T21:34:09.360Z,95450.47
2023-01-11T21:36:09.899Z,95457.38
2023-01-11T21:38:08.422Z,95459.03
2023-01-11T21:40:11.822Z,95460.84
2023-01-11T21:42:10.266Z,95455.75
2023-01-11T21:44:10.704Z,95459.19
2023-01-11T21:46:09.679Z,95457.28
2023-01-11T21:48:11.140Z,95456.53
2023-01-11T21:50:11.806Z,95463.38
2023-01-11T21:52:10.079Z,95464.53
2023-01-11T21:54:11.565Z,95456.00
2023-01-11T21:56:09.966Z,95462.94
2023-01-11T21:58:08.508Z,95458.19
2023-01-11T22:00:12.812Z,95459.03
2023-01-11T22:02:11.297Z,95467.81
2023-01-11T22:04:10.948Z,95470.50
2023-01-11T22:06:09.563Z,95466.38
2023-01-11T22:08:07.959Z,95457.94
2023-01-11T22:10:07.446Z,95463.84
2023-01-11T22:12:06.010Z,95453.31
2023-01-11T22:14:06.590Z,95457.66
2023-01-11T22:16:08.511Z,95464.66
2023-01-11T22:18:08.048Z,95457.91
2023-01-11T22:20:10.288Z,95454.59
2023-01-11T22:22:08.644Z,95462.59
2023-01-11T22:24:10.261Z,95454.91
2023-01-11T22:26:10.344Z,95454.22
2023-01-11T22:28:08.558Z,95451.00
2023-01-11T22:30:08.827Z,95449.31
2023-01-11T22:32:08.515Z,95450.00
2023-01-11T22:34:07.778Z,95446.44
2023-01-11T22:36:07.175Z,95453.22
2023-01-11T22:38:05.687Z,95451.53
2023-01-11T22:40:04.143Z,95445.50
2023-01-11T22:42:02.311Z,95444.81
2023-01-11T22:44:00.732Z,95449.25
2023-01-11T22:45:59.448Z,95445.03
2023-01-11T22:48:01.070Z,95452.22
2023-01-11T22:49:59.505Z,95447.78
2023-01-11T22:51:58.020Z,95450.53
2023-01-11T22:53:57.411Z,95449.19
2023-01-11T22:55:55.983Z,95439.50
2023-01-11T22:57:55.064Z,95438.56
2023-01-11T22:59:53.555Z,95443.16
2023-01-11T23:01:51.919Z,95436.44
2023-01-11T23:03:52.823Z,95439.94
2023-01-11T23:05:54.604Z,95445.50
2023-01-11T23:07:52.858Z,95446.03
2023-01-11T23:09:51.179Z,95455.28
2023-01-11T23:12:07.349Z,95446.66
2023-01-11T23:14:08.310Z,95447.78
2023-01-11T23:16:07.537Z,95447.88
2023-01-11T23:18:06.465Z,95441.53
2023-01-11T23:20:12.906Z,95441.16
2023-01-11T23:22:16.989Z,95447.13
2023-01-11T23:24:16.732Z,95438.72
2023-01-11T23:26:18.021Z,95439.94
2023-01-11T23:28:16.766Z,95440.09
2023-01-11T23:30:15.449Z,95442.69
2023-01-11T23:32:14.105Z,95447.38
2023-01-11T23:34:13.182Z,95437.97
2023-01-11T23:36:12.881Z,95436.34
2023-01-11T23:38:11.268Z,95433.31
2023-01-11T23:40:11.829Z,95439.19
2023-01-11T23:42:28.286Z,95437.50
2023-01-11T23:44:26.651Z,95433.16
2023-01-11T23:46:42.878Z,95438.03
2023-01-11T23:48:41.191Z,95436.22
2023-01-11T23:50:39.392Z,95438.03
2023-01-11T23:52:38.968Z,95447.50
2023-01-11T23:54:37.337Z,95448.88
2023-01-11T23:56:36.087Z,95443.44
2023-01-11T23:58:34.133Z,95445.13
